Time;durP1;ratioP1;P1;durP2;ratioP2;P2;SDS_P1;SDS_P2;PMS_P1;PMS_P2;Temp;Humidity;BMP_temperature;BMP_pressure;BME280_temperature;BME280_humidity;BME280_pressure;Samples;Min_cycle;Max_cycle;Signal;HPM_P1;HPM_P2
2023/03/11 00:00:12;;;;;;;;;;;;;;;;;;5154387;27;995;-43
2023/03/11 00:02:39;;;;;;;;;;;;;;;;;;5154508;27;1214;-43
2023/03/11 00:05:07;;;;;;;;;;;;;;;;;;5154456;27;966;-43
2023/03/11 00:07:36;;;;;;;;;;;;;;;;;;5154368;27;997;-45
2023/03/11 00:10:03;;;;;;;;;;;;;;;;;;5172391;27;1414;-44
2023/03/11 00:12:31;;;;;;;;;;;;;;;;;;5175101;27;1244;-46
2023/03/11 00:14:58;;;;;;;;;;;;;;;;;;5174962;27;990;-45
2023/03/11 00:17:25;;;;;;;;;;;;;;;;;;5175057;27;1917;-46
2023/03/11 00:19:52;;;;;;;;;;;;;;;;;;5157825;27;1575;-44
2023/03/11 00:22:20;;;;;;;;;;;;;;;;;;5154308;27;1187;-44
2023/03/11 00:24:47;;;;;;;;;;;;;;;;;;5153982;27;916;-43
2023/03/11 00:27:14;;;;;;;;;;;;;;;;;;5153856;27;1076;-45
2023/03/11 00:29:41;;;;;;;;;;;;;;;;;;5135386;27;2148;-43
2023/03/11 00:32:08;;;;;;;;;;;;;;;;;;5153945;27;1280;-44
2023/03/11 00:34:35;;;;;;;;;;;;;;;;;;5154957;27;1559;-43
2023/03/11 00:37:03;;;;;;;;;;;;;;;;;;5153765;27;1903;-44
2023/03/11 00:39:30;;;;;;;;;;;;;;;;;;5153831;27;1138;-43
2023/03/11 00:41:57;;;;;;;;;;;;;;;;;;5135040;27;1388;-44
2023/03/11 00:44:24;;;;;;;;;;;;;;;;;;5153258;27;1405;-45
2023/03/11 00:46:52;;;;;;;;;;;;;;;;;;5153967;27;1043;-43
2023/03/11 00:49:19;;;;;;;;;;;;;;;;;;5134878;27;1683;-48
2023/03/11 00:51:46;;;;;;;;;;;;;;;;;;5134988;27;1271;-42
2023/03/11 00:54:14;;;;;;;;;;;;;;;;;;5135200;27;1264;-43
2023/03/11 00:56:41;;;;;;;;;;;;;;;;;;5153186;27;1917;-44
2023/03/11 00:59:09;;;;;;;;;;;;;;;;;;5134778;27;1342;-44
2023/03/11 01:01:37;;;;;;;;;;;;;;;;;;5153321;27;1125;-44
2023/03/11 01:04:04;;;;;;;;;;;;;;;;;;5134712;27;1103;-43
2023/03/11 01:06:31;;;;;;;;;;;;;;;;;;5153371;27;957;-44
2023/03/11 01:09:11;;;;;;;;;;;;;;;;;;5164008;27;1300;-44
2023/03/11 01:11:38;;;;;;;;;;;;;;;;;;5174225;27;1007;-44
2023/03/11 01:14:07;;;;;;;;;;;;;;;;;;5174140;27;986;-44
2023/03/11 01:16:34;;;;;;;;;;;;;;;;;;5174100;27;1915;-46
2023/03/11 01:19:02;;;;;;;;;;;;;;;;;;5164076;27;1543;-48
2023/03/11 01:21:29;;;;;;;;;;;;;;;;;;5146992;27;1532;-49
2023/03/11 01:23:58;;;;;;;;;;;;;;;;;;5155481;27;1413;-55
2023/03/11 01:26:25;;;;;;;;;;;;;;;;;;5174182;27;1141;-56
2023/03/11 01:28:54;;;;;;;;;;;;;;;;;;5155836;27;991;-57
2023/03/11 01:31:21;;;;;;;;;;;;;;;;;;5173794;27;1443;-55
2023/03/11 01:33:49;;;;;;;;;;;;;;;;;;5173673;27;1545;-53
2023/03/11 01:36:16;;;;;;;;;;;;;;;;;;5173714;27;1980;-57
2023/03/11 01:38:43;;;;;;;;;;;;;;;;;;5173915;27;1074;-54
2023/03/11 01:41:13;;;;;;;;;;;;;;;;;;5173702;27;999;-46
2023/03/11 01:43:40;;;;;;;;;;;;;;;;;;5173742;27;1666;-45
2023/03/11 01:46:11;;;;;;;;;;;;;;;;;;5155021;27;1237;-44
2023/03/11 01:48:41;;;;;;;;;;;;;;;;;;5154053;27;1553;-49
2023/03/11 01:51:08;;;;;;;;;;;;;;;;;;5173911;27;1326;-43
2023/03/11 01:53:38;;;;;;;;;;;;;;;;;;5173557;27;1268;-45
2023/03/11 01:56:05;;;;;;;;;;;;;;;;;;5155514;27;1947;-43
2023/03/11 01:58:36;;;;;;;;;;;;;;;;;;5177931;27;1084;-44
2023/03/11 02:01:06;;;;;;;;;;;;;;;;;;5177726;27;1091;-46
2023/03/11 02:03:39;;;;;;;;;;;;;;;;;;5158963;27;1211;-43
2023/03/11 02:06:08;;;;;;;;;;;;;;;;;;5158939;27;1248;-44
2023/03/11 02:08:36;;;;;;;;;;;;;;;;;;5171890;27;1276;-49
2023/03/11 02:11:07;;;;;;;;;;;;;;;;;;5137961;27;1521;-58
2023/03/11 02:13:35;;;;;;;;;;;;;;;;;;5156680;27;908;-43
2023/03/11 02:16:03;;;;;;;;;;;;;;;;;;5137802;27;2213;-44
2023/03/11 02:18:30;;;;;;;;;;;;;;;;;;5163269;27;1603;-44
2023/03/11 02:21:00;;;;;;;;;;;;;;;;;;5166055;27;1559;-44
2023/03/11 02:23:32;;;;;;;;;;;;;;;;;;5138068;27;1190;-44
2023/03/11 02:26:13;;;;;;;;;;;;;;;;;;5137863;27;1346;-43
2023/03/11 02:28:41;;;;;;;;;;;;;;;;;;5137790;27;1455;-43
2023/03/11 02:31:08;;;;;;;;;;;;;;;;;;5157726;27;1674;-46
2023/03/11 02:33:36;;;;;;;;;;;;;;;;;;5158276;27;1257;-44
2023/03/11 02:36:04;;;;;;;;;;;;;;;;;;5154798;27;1280;-43
2023/03/11 02:38:31;;;;;;;;;;;;;;;;;;5154556;27;1911;-44
2023/03/11 02:40:59;;;;;;;;;;;;;;;;;;5155026;27;1189;-42
2023/03/11 02:43:39;;;;;;;;;;;;;;;;;;5156196;27;1058;-44
2023/03/11 02:46:09;;;;;;;;;;;;;;;;;;5154771;27;1360;-44
2023/03/11 02:48:37;;;;;;;;;;;;;;;;;;5134130;27;1535;-45
2023/03/11 02:51:04;;;;;;;;;;;;;;;;;;5135107;27;895;-44
2023/03/11 02:53:34;;;;;;;;;;;;;;;;;;5133964;27;1232;-44
2023/03/11 02:56:02;;;;;;;;;;;;;;;;;;5135133;27;1441;-43
2023/03/11 02:58:29;;;;;;;;;;;;;;;;;;5133900;27;1922;-45
2023/03/11 03:00:56;;;;;;;;;;;;;;;;;;5133665;27;1397;-43
2023/03/11 03:03:24;;;;;;;;;;;;;;;;;;5133636;27;1197;-44
2023/03/11 03:05:51;;;;;;;;;;;;;;;;;;5134974;27;1180;-44
2023/03/11 03:08:19;;;;;;;;;;;;;;;;;;5136282;27;1315;-44
2023/03/11 03:10:46;;;;;;;;;;;;;;;;;;5154429;27;1222;-44
2023/03/11 03:13:13;;;;;;;;;;;;;;;;;;5155553;27;1154;-54
2023/03/11 03:15:40;;;;;;;;;;;;;;;;;;5155384;27;1027;-52
2023/03/11 03:18:08;;;;;;;;;;;;;;;;;;5154499;27;1994;-44
2023/03/11 03:20:35;;;;;;;;;;;;;;;;;;5155485;27;1157;-43
2023/03/11 03:23:02;;;;;;;;;;;;;;;;;;5154314;27;1270;-44
2023/03/11 03:25:31;;;;;;;;;;;;;;;;;;5153734;27;1552;-51
2023/03/11 03:28:02;;;;;;;;;;;;;;;;;;5154158;27;1413;-43
2023/03/11 03:30:33;;;;;;;;;;;;;;;;;;5153857;27;1225;-44
2023/03/11 03:33:00;;;;;;;;;;;;;;;;;;5143163;27;1421;-44
2023/03/11 03:35:29;;;;;;;;;;;;;;;;;;5132762;27;2108;-54
2023/03/11 03:38:14;;;;;;;;;;;;;;;;;;5141801;27;1922;-58
2023/03/11 03:40:46;;;;;;;;;;;;;;;;;;5153597;27;1224;-54
2023/03/11 03:43:17;;;;;;;;;;;;;;;;;;5153505;27;1225;-48
2023/03/11 03:45:53;;;;;;;;;;;;;;;;;;5153453;27;1415;-50
2023/03/11 03:48:21;;;;;;;;;;;;;;;;;;5153552;27;2280;-45
2023/03/11 03:50:48;;;;;;;;;;;;;;;;;;5154586;27;1396;-47
2023/03/11 03:53:16;;;;;;;;;;;;;;;;;;5136969;27;1573;-43
2023/03/11 03:55:44;;;;;;;;;;;;;;;;;;5132509;27;1604;-42
2023/03/11 03:58:12;;;;;;;;;;;;;;;;;;5133744;27;1913;-43
2023/03/11 04:00:39;;;;;;;;;;;;;;;;;;5132624;27;1303;-46
2023/03/11 04:03:07;;;;;;;;;;;;;;;;;;5132597;27;1437;-44
2023/03/11 04:05:47;;;;;;;;;;;;;;;;;;5132446;27;1229;-45
2023/03/11 04:08:14;;;;;;;;;;;;;;;;;;5136064;27;1347;-46
2023/03/11 04:10:42;;;;;;;;;;;;;;;;;;5132942;27;1271;-45
2023/03/11 04:13:09;;;;;;;;;;;;;;;;;;5133558;27;1239;-42
2023/03/11 04:15:37;;;;;;;;;;;;;;;;;;5133716;27;1327;-44
2023/03/11 04:18:04;;;;;;;;;;;;;;;;;;5132296;27;1990;-43
2023/03/11 04:20:32;;;;;;;;;;;;;;;;;;5131244;27;1329;-43
2023/03/11 04:22:59;;;;;;;;;;;;;;;;;;5132045;27;1224;-46
2023/03/11 04:25:26;;;;;;;;;;;;;;;;;;5132866;27;2036;-45
2023/03/11 04:27:53;;;;;;;;;;;;;;;;;;5131963;27;1762;-44
2023/03/11 04:30:21;;;;;;;;;;;;;;;;;;5131983;27;2357;-42
2023/03/11 04:32:53;;;;;;;;;;;;;;;;;;5132180;27;2065;-44
2023/03/11 04:35:20;;;;;;;;;;;;;;;;;;5131489;27;2060;-43
2023/03/11 04:37:47;;;;;;;;;;;;;;;;;;5133370;27;1910;-43
2023/03/11 04:40:15;;;;;;;;;;;;;;;;;;5131674;27;2486;-55
2023/03/11 04:42:42;;;;;;;;;;;;;;;;;;5133175;27;1729;-45
2023/03/11 04:45:10;;;;;;;;;;;;;;;;;;5146785;27;1754;-44
2023/03/11 04:47:38;;;;;;;;;;;;;;;;;;5136287;27;2101;-45
2023/03/11 04:50:05;;;;;;;;;;;;;;;;;;5131913;27;1977;-43
2023/03/11 04:52:32;;;;;;;;;;;;;;;;;;5132937;27;1870;-44
2023/03/11 04:55:00;;;;;;;;;;;;;;;;;;5131749;27;2172;-44
2023/03/11 04:57:27;;;;;;;;;;;;;;;;;;5131457;27;2047;-43
2023/03/11 04:59:56;;;;;;;;;;;;;;;;;;5131634;27;2006;-43
2023/03/11 05:02:23;;;;;;;;;;;;;;;;;;5132648;27;1678;-43
2023/03/11 05:04:56;;;;;;;;;;;;;;;;;;5131682;27;2228;-45
2023/03/11 05:07:23;;;;;;;;;;;;;;;;;;5132843;27;2047;-44
2023/03/11 05:09:51;;;;;;;;;;;;;;;;;;5147795;27;2079;-44
2023/03/11 05:12:19;;;;;;;;;;;;;;;;;;5151994;27;1829;-42
2023/03/11 05:14:50;;;;;;;;;;;;;;;;;;5151846;27;1711;-51
2023/03/11 05:17:18;;;;;;;;;;;;;;;;;;5138078;27;1984;-50
2023/03/11 05:19:47;;;;;;;;;;;;;;;;;;5131034;27;2204;-47
2023/03/11 05:22:22;;;;;;;;;;;;;;;;;;5131109;27;2127;-52
2023/03/11 05:24:50;;;;;;;;;;;;;;;;;;5131188;27;2121;-49
2023/03/11 05:27:18;;;;;;;;;;;;;;;;;;5130982;27;1497;-48
2023/03/11 05:29:51;;;;;;;;;;;;;;;;;;5130887;27;2216;-45
2023/03/11 05:32:20;;;;;;;;;;;;;;;;;;5131105;27;1569;-52
2023/03/11 05:34:48;;;;;;;;;;;;;;;;;;5130692;27;2120;-52
2023/03/11 05:37:16;;;;;;;;;;;;;;;;;;5130945;28;1905;-51
2023/03/11 05:39:45;;;;;;;;;;;;;;;;;;5130712;28;1499;-44
2023/03/11 05:42:13;;;;;;;;;;;;;;;;;;5131094;28;2194;-44
2023/03/11 05:44:40;;;;;;;;;;;;;;;;;;5131176;28;1948;-44
2023/03/11 05:47:08;;;;;;;;;;;;;;;;;;5132220;27;2037;-49
2023/03/11 05:49:35;;;;;;;;;;;;;;;;;;5130875;28;1646;-43
2023/03/11 05:52:03;;;;;;;;;;;;;;;;;;5130804;28;1763;-45
2023/03/11 05:54:32;;;;;;;;;;;;;;;;;;5141335;27;1889;-47
2023/03/11 05:56:59;;;;;;;;;;;;;;;;;;5151438;27;1907;-44
2023/03/11 05:59:31;;;;;;;;;;;;;;;;;;5151463;27;2114;-44
2023/03/11 06:02:01;;;;;;;;;;;;;;;;;;5149172;27;2122;-48
2023/03/11 06:04:29;;;;;;;;;;;;;;;;;;5144837;27;1905;-50
2023/03/11 06:06:59;;;;;;;;;;;;;;;;;;5137569;27;1879;-44
2023/03/11 06:09:29;;;;;;;;;;;;;;;;;;5151241;27;2130;-46
2023/03/11 06:11:56;;;;;;;;;;;;;;;;;;5151315;27;1941;-44
2023/03/11 06:14:31;;;;;;;;;;;;;;;;;;5151297;27;1401;-44
2023/03/11 06:17:02;;;;;;;;;;;;;;;;;;5151167;27;1696;-44
2023/03/11 06:19:30;;;;;;;;;;;;;;;;;;5152509;27;1424;-50
2023/03/11 06:21:57;;;;;;;;;;;;;;;;;;5152493;27;2108;-44
2023/03/11 06:24:24;;;;;;;;;;;;;;;;;;5151293;27;1750;-44
2023/03/11 06:26:52;;;;;;;;;;;;;;;;;;5151121;27;1945;-44
2023/03/11 06:29:23;;;;;;;;;;;;;;;;;;5151053;27;1921;-44
2023/03/11 06:31:50;;;;;;;;;;;;;;;;;;5151107;27;1946;-44
2023/03/11 06:34:18;;;;;;;;;;;;;;;;;;5143753;27;1501;-43
2023/03/11 06:36:45;;;;;;;;;;;;;;;;;;5132034;27;2049;-44
2023/03/11 06:39:14;;;;;;;;;;;;;;;;;;5131742;28;1914;-45
2023/03/11 06:41:44;;;;;;;;;;;;;;;;;;5130547;27;1700;-45
2023/03/11 06:44:12;;;;;;;;;;;;;;;;;;5134331;27;1985;-44
2023/03/11 06:46:40;;;;;;;;;;;;;;;;;;5133908;27;1794;-44
2023/03/11 06:49:07;;;;;;;;;;;;;;;;;;5135372;27;1979;-43
2023/03/11 06:51:36;;;;;;;;;;;;;;;;;;5133765;27;1917;-46
2023/03/11 06:54:04;;;;;;;;;;;;;;;;;;5133874;27;2140;-44
2023/03/11 06:56:31;;;;;;;;;;;;;;;;;;5135250;27;1678;-46
2023/03/11 06:59:03;;;;;;;;;;;;;;;;;;5133553;27;1899;-43
2023/03/11 07:01:33;;;;;;;;;;;;;;;;;;5133835;27;1994;-44
2023/03/11 07:04:04;;;;;;;;;;;;;;;;;;5133685;27;2163;-43
2023/03/11 07:06:32;;;;;;;;;;;;;;;;;;5134046;27;1699;-45
2023/03/11 07:09:17;;;;;;;;;;;;;;;;;;5145201;27;1996;-46
2023/03/11 07:11:45;;;;;;;;;;;;;;;;;;5154404;27;1673;-44
2023/03/11 07:14:17;;;;;;;;;;;;;;;;;;5154381;27;1959;-45
2023/03/11 07:16:48;;;;;;;;;;;;;;;;;;5154411;27;1533;-43
2023/03/11 07:19:30;;;;;;;;;;;;;;;;;;5153960;27;1910;-43
2023/03/11 07:21:57;;;;;;;;;;;;;;;;;;5155319;27;1265;-51
2023/03/11 07:24:24;;;;;;;;;;;;;;;;;;5155244;27;1815;-48
2023/03/11 07:26:52;;;;;;;;;;;;;;;;;;5155302;27;1599;-50
2023/03/11 07:29:19;;;;;;;;;;;;;;;;;;5155441;27;2019;-49
2023/03/11 07:31:47;;;;;;;;;;;;;;;;;;5154504;27;1551;-52
2023/03/11 07:34:18;;;;;;;;;;;;;;;;;;5158725;27;1626;-51
2023/03/11 07:36:45;;;;;;;;;;;;;;;;;;5175770;27;1995;-50
2023/03/11 07:39:14;;;;;;;;;;;;;;;;;;5175939;27;2077;-49
2023/03/11 07:41:43;;;;;;;;;;;;;;;;;;5175701;27;2282;-50
2023/03/11 07:44:11;;;;;;;;;;;;;;;;;;5175915;27;1508;-57
2023/03/11 07:46:38;;;;;;;;;;;;;;;;;;5175852;27;1474;-47
2023/03/11 07:49:06;;;;;;;;;;;;;;;;;;5175502;27;2233;-52
2023/03/11 07:51:34;;;;;;;;;;;;;;;;;;5175763;27;1747;-50
2023/03/11 07:54:02;;;;;;;;;;;;;;;;;;5157043;27;1800;-51
2023/03/11 07:56:30;;;;;;;;;;;;;;;;;;5175740;27;2031;-48
2023/03/11 07:58:58;;;;;;;;;;;;;;;;;;5175490;27;1907;-51
2023/03/11 08:01:29;;;;;;;;;;;;;;;;;;5175414;27;1969;-44
2023/03/11 08:03:57;;;;;;;;;;;;;;;;;;5154563;27;1513;-51
2023/03/11 08:06:25;;;;;;;;;;;;;;;;;;5154493;27;2137;-42
2023/03/11 08:08:53;;;;;;;;;;;;;;;;;;5162865;27;1926;-44
2023/03/11 08:11:21;;;;;;;;;;;;;;;;;;5175307;27;1985;-43
2023/03/11 08:13:49;;;;;;;;;;;;;;;;;;5175408;27;1895;-49
2023/03/11 08:16:17;;;;;;;;;;;;;;;;;;5175240;27;2072;-44
2023/03/11 08:18:45;;;;;;;;;;;;;;;;;;5156356;27;1997;-44
2023/03/11 08:21:15;;;;;;;;;;;;;;;;;;5175148;27;1904;-48
2023/03/11 08:23:42;;;;;;;;;;;;;;;;;;5175067;27;1954;-45
2023/03/11 08:26:12;;;;;;;;;;;;;;;;;;5175043;27;1900;-43
2023/03/11 08:28:39;;;;;;;;;;;;;;;;;;5174990;27;2141;-42
2023/03/11 08:31:13;;;;;;;;;;;;;;;;;;5174829;27;1832;-44
2023/03/11 08:33:40;;;;;;;;;;;;;;;;;;5170118;27;2276;-49
2023/03/11 08:36:07;;;;;;;;;;;;;;;;;;5153667;27;1546;-45
2023/03/11 08:38:35;;;;;;;;;;;;;;;;;;5153859;27;1976;-46
2023/03/11 08:41:02;;;;;;;;;;;;;;;;;;5135354;27;1602;-44
2023/03/11 08:43:29;;;;;;;;;;;;;;;;;;5153765;27;2234;-44
2023/03/11 08:45:58;;;;;;;;;;;;;;;;;;5158248;27;2445;-44
2023/03/11 08:48:26;;;;;;;;;;;;;;;;;;5174515;27;1771;-44
2023/03/11 08:50:53;;;;;;;;;;;;;;;;;;5174766;27;1609;-45
2023/03/11 08:53:21;;;;;;;;;;;;;;;;;;5174670;27;1900;-45
2023/03/11 08:55:49;;;;;;;;;;;;;;;;;;5174235;27;2175;-44
2023/03/11 08:58:16;;;;;;;;;;;;;;;;;;5174248;27;1978;-43
2023/03/11 09:00:43;;;;;;;;;;;;;;;;;;5168297;27;2264;-45
2023/03/11 09:03:12;;;;;;;;;;;;;;;;;;5153503;27;2173;-44
2023/03/11 09:05:39;;;;;;;;;;;;;;;;;;5153031;27;1859;-45
2023/03/11 09:08:06;;;;;;;;;;;;;;;;;;5154697;27;1967;-44
2023/03/11 09:10:34;;;;;;;;;;;;;;;;;;5174398;27;2053;-45
2023/03/11 09:13:01;;;;;;;;;;;;;;;;;;5174179;27;1274;-44
2023/03/11 09:15:28;;;;;;;;;;;;;;;;;;5174074;27;2150;-44
2023/03/11 09:17:55;;;;;;;;;;;;;;;;;;5174212;27;1990;-44
2023/03/11 09:20:23;;;;;;;;;;;;;;;;;;5174244;27;1879;-46
2023/03/11 09:22:50;;;;;;;;;;;;;;;;;;5174064;27;1670;-43
2023/03/11 09:25:17;;;;;;;;;;;;;;;;;;5173999;27;1616;-44
2023/03/11 09:27:44;;;;;;;;;;;;;;;;;;5142650;27;10128;-52
2023/03/11 09:30:11;;;;;;;;;;;;;;;;;;5128460;27;1868;-53
2023/03/11 09:32:38;;;;;;;;;;;;;;;;;;5111710;28;1972;-55
2023/03/11 09:35:06;;;;;;;;;;;;;;;;;;5111562;28;2285;-48
2023/03/11 09:37:34;;;;;;;;;;;;;;;;;;5111792;28;1635;-55
2023/03/11 09:40:01;;;;;;;;;;;;;;;;;;5111579;28;2092;-55
2023/03/11 09:42:35;;;;;;;;;;;;;;;;;;5111690;28;1713;-44
2023/03/11 09:45:07;;;;;;;;;;;;;;;;;;5111621;28;2116;-53
2023/03/11 09:47:57;;;;;;;;;;;;;;;;;;5111558;28;2027;-53
2023/03/11 09:50:30;;;;;;;;;;;;;;;;;;5099394;28;1981;-44
2023/03/11 09:52:58;;;;;;;;;;;;;;;;;;5111819;28;1644;-54
2023/03/11 09:55:31;;;;;;;;;;;;;;;;;;5111762;28;2198;-49
2023/03/11 09:58:00;;;;;;;;;;;;;;;;;;5111739;28;1992;-45
2023/03/11 10:00:28;;;;;;;;;;;;;;;;;;5111617;28;2096;-47
2023/03/11 10:02:55;;;;;;;;;;;;;;;;;;5118351;28;1972;-53
2023/03/11 10:05:25;;;;;;;;;;;;;;;;;;5131972;28;2166;-47
2023/03/11 10:07:56;;;;;;;;;;;;;;;;;;5132034;28;1954;-56
2023/03/11 10:10:24;;;;;;;;;;;;;;;;;;5111495;28;1716;-53
2023/03/11 10:12:57;;;;;;;;;;;;;;;;;;5111124;28;1929;-45
2023/03/11 10:15:34;;;;;;;;;;;;;;;;;;5111687;28;1598;-49
2023/03/11 10:18:05;;;;;;;;;;;;;;;;;;5113386;28;1935;-47
2023/03/11 10:20:38;;;;;;;;;;;;;;;;;;5115286;28;1901;-44
2023/03/11 10:23:09;;;;;;;;;;;;;;;;;;5114982;28;2079;-46
2023/03/11 10:25:36;;;;;;;;;;;;;;;;;;5115202;28;1580;-43
2023/03/11 10:28:15;;;;;;;;;;;;;;;;;;5115159;28;1823;-45
2023/03/11 10:30:49;;;;;;;;;;;;;;;;;;5121168;27;1785;-45
2023/03/11 10:33:16;;;;;;;;;;;;;;;;;;5130755;27;1875;-45
2023/03/11 10:35:45;;;;;;;;;;;;;;;;;;5114445;28;1818;-45
2023/03/11 10:38:31;;;;;;;;;;;;;;;;;;5114720;28;2090;-44
2023/03/11 10:41:18;;;;;;;;;;;;;;;;;;5113889;28;1868;-45
2023/03/11 10:43:50;;;;;;;;;;;;;;;;;;5097298;28;1635;-44
2023/03/11 10:46:22;;;;;;;;;;;;;;;;;;5096451;28;1631;-43
2023/03/11 10:48:49;;;;;;;;;;;;;;;;;;5114649;28;1586;-43
2023/03/11 10:51:21;;;;;;;;;;;;;;;;;;5114792;28;1785;-47
2023/03/11 10:53:50;;;;;;;;;;;;;;;;;;5114578;28;2052;-44
2023/03/11 10:56:30;;;;;;;;;;;;;;;;;;5114637;28;1814;-44
2023/03/11 10:58:58;;;;;;;;;;;;;;;;;;5114621;28;2093;-43
2023/03/11 11:01:27;;;;;;;;;;;;;;;;;;5114773;27;1970;-45
2023/03/11 11:03:55;;;;;;;;;;;;;;;;;;5114427;28;2035;-42
2023/03/11 11:06:27;;;;;;;;;;;;;;;;;;5114404;28;1962;-44
2023/03/11 11:09:13;;;;;;;;;;;;;;;;;;5122663;27;1336;-45
2023/03/11 11:11:41;;;;;;;;;;;;;;;;;;5135001;27;2068;-45
2023/03/11 11:14:09;;;;;;;;;;;;;;;;;;5134902;27;1421;-45
2023/03/11 11:16:36;;;;;;;;;;;;;;;;;;5134711;27;1846;-44
2023/03/11 11:19:14;;;;;;;;;;;;;;;;;;5134978;27;1903;-44
2023/03/11 11:21:42;;;;;;;;;;;;;;;;;;5134558;27;1488;-44
2023/03/11 11:24:26;;;;;;;;;;;;;;;;;;5134734;27;1810;-44
2023/03/11 11:27:03;;;;;;;;;;;;;;;;;;5134573;27;1779;-45
2023/03/11 11:29:30;;;;;;;;;;;;;;;;;;5134449;27;1678;-45
2023/03/11 11:32:19;;;;;;;;;;;;;;;;;;5115241;27;2078;-43
2023/03/11 11:34:58;;;;;;;;;;;;;;;;;;5134273;27;1758;-45
2023/03/11 11:37:30;;;;;;;;;;;;;;;;;;5134406;27;1474;-44
2023/03/11 11:40:18;;;;;;;;;;;;;;;;;;5134207;27;2089;-43
2023/03/11 11:42:49;;;;;;;;;;;;;;;;;;5132953;27;2004;-44
2023/03/11 11:45:25;;;;;;;;;;;;;;;;;;5134207;27;2031;-44
2023/03/11 11:47:54;;;;;;;;;;;;;;;;;;5134118;27;1878;-44
2023/03/11 11:50:31;;;;;;;;;;;;;;;;;;5134094;27;1782;-43
2023/03/11 11:53:08;;;;;;;;;;;;;;;;;;5133998;27;1382;-45
2023/03/11 11:55:36;;;;;;;;;;;;;;;;;;5134188;27;1957;-43
2023/03/11 11:58:07;;;;;;;;;;;;;;;;;;5134225;27;2279;-45
2023/03/11 12:00:43;;;;;;;;;;;;;;;;;;5131848;27;1919;-43
2023/03/11 12:03:19;;;;;;;;;;;;;;;;;;5133776;27;1464;-44
2023/03/11 12:05:57;;;;;;;;;;;;;;;;;;5133823;27;1977;-45
2023/03/11 12:08:31;;;;;;;;;;;;;;;;;;5129510;27;1463;-43
2023/03/11 12:11:06;;;;;;;;;;;;;;;;;;5113169;28;2155;-44
2023/03/11 12:13:42;;;;;;;;;;;;;;;;;;5112567;28;2039;-44
2023/03/11 12:16:39;;;;;;;;;;;;;;;;;;5113334;28;1932;-44
2023/03/11 12:19:06;;;;;;;;;;;;;;;;;;5091963;28;2043;-45
2023/03/11 12:21:39;;;;;;;;;;;;;;;;;;5113231;28;2274;-45
2023/03/11 12:24:14;;;;;;;;;;;;;;;;;;5112804;28;2144;-55
2023/03/11 12:26:42;;;;;;;;;;;;;;;;;;5112931;28;1979;-45
2023/03/11 12:29:30;;;;;;;;;;;;;;;;;;5112938;28;1995;-53
2023/03/11 12:31:59;;;;;;;;;;;;;;;;;;5095681;28;1838;-45
2023/03/11 12:34:27;;;;;;;;;;;;;;;;;;5112414;28;1976;-50
2023/03/11 12:36:57;;;;;;;;;;;;;;;;;;5112818;28;1941;-44
2023/03/11 12:39:29;;;;;;;;;;;;;;;;;;5131759;27;2287;-52
2023/03/11 12:42:16;;;;;;;;;;;;;;;;;;5132927;27;1692;-47
2023/03/11 12:44:44;;;;;;;;;;;;;;;;;;5125976;27;1876;-54
2023/03/11 12:47:12;;;;;;;;;;;;;;;;;;5112493;28;1967;-48
2023/03/11 12:49:42;;;;;;;;;;;;;;;;;;5112600;28;1603;-47
2023/03/11 12:52:12;;;;;;;;;;;;;;;;;;5094643;28;1632;-51
2023/03/11 12:54:43;;;;;;;;;;;;;;;;;;5112436;28;2013;-52
2023/03/11 12:57:17;;;;;;;;;;;;;;;;;;5112509;28;1751;-52
2023/03/11 12:59:47;;;;;;;;;;;;;;;;;;5112471;28;2027;-54
2023/03/11 13:02:27;;;;;;;;;;;;;;;;;;5112310;28;1881;-49
2023/03/11 13:05:09;;;;;;;;;;;;;;;;;;5111859;28;1721;-49
2023/03/11 13:07:45;;;;;;;;;;;;;;;;;;5112247;28;1705;-51
2023/03/11 13:10:36;;;;;;;;;;;;;;;;;;5112033;28;2199;-51
2023/03/11 13:13:22;;;;;;;;;;;;;;;;;;5099560;28;2287;-47
2023/03/11 13:15:50;;;;;;;;;;;;;;;;;;5112080;28;1868;-47
2023/03/11 13:18:24;;;;;;;;;;;;;;;;;;5111765;28;1978;-47
2023/03/11 13:20:57;;;;;;;;;;;;;;;;;;5112145;27;2261;-43
2023/03/11 13:23:26;;;;;;;;;;;;;;;;;;5111896;28;1864;-44
2023/03/11 13:25:53;;;;;;;;;;;;;;;;;;5111964;28;2285;-43
2023/03/11 13:28:39;;;;;;;;;;;;;;;;;;5111156;28;1517;-44
2023/03/11 13:31:24;;;;;;;;;;;;;;;;;;5112160;28;1985;-43
2023/03/11 13:34:15;;;;;;;;;;;;;;;;;;5111607;28;2032;-44
2023/03/11 13:36:54;;;;;;;;;;;;;;;;;;5099563;28;1685;-44
2023/03/11 13:39:32;;;;;;;;;;;;;;;;;;5111764;28;1970;-43
2023/03/11 13:41:59;;;;;;;;;;;;;;;;;;5093620;28;2028;-45
2023/03/11 13:44:28;;;;;;;;;;;;;;;;;;5111376;28;1990;-44
2023/03/11 13:47:17;;;;;;;;;;;;;;;;;;5111651;28;1973;-44
2023/03/11 13:49:50;;;;;;;;;;;;;;;;;;5111522;28;1911;-44
2023/03/11 13:52:23;;;;;;;;;;;;;;;;;;5114473;28;1908;-44
2023/03/11 13:54:57;;;;;;;;;;;;;;;;;;5115629;28;1948;-44
2023/03/11 13:57:26;;;;;;;;;;;;;;;;;;5115591;28;2234;-44
2023/03/11 13:59:54;;;;;;;;;;;;;;;;;;5115365;28;1911;-44
2023/03/11 14:02:23;;;;;;;;;;;;;;;;;;5115505;28;1876;-43
2023/03/11 14:05:05;;;;;;;;;;;;;;;;;;5115673;28;1908;-48
2023/03/11 14:07:34;;;;;;;;;;;;;;;;;;5115481;28;1668;-44
2023/03/11 14:10:14;;;;;;;;;;;;;;;;;;5133356;27;1820;-44
2023/03/11 14:12:41;;;;;;;;;;;;;;;;;;5118112;27;2143;-43
2023/03/11 14:15:13;;;;;;;;;;;;;;;;;;5123523;27;1574;-44
2023/03/11 14:17:40;;;;;;;;;;;;;;;;;;5135866;27;1954;-45
2023/03/11 14:20:23;;;;;;;;;;;;;;;;;;5135836;27;1973;-44
2023/03/11 14:22:52;;;;;;;;;;;;;;;;;;5135629;27;1686;-43
2023/03/11 14:25:26;;;;;;;;;;;;;;;;;;5135924;27;1983;-43
2023/03/11 14:27:55;;;;;;;;;;;;;;;;;;5117294;27;2150;-44
2023/03/11 14:30:24;;;;;;;;;;;;;;;;;;5136157;27;2044;-43
2023/03/11 14:33:02;;;;;;;;;;;;;;;;;;5135526;27;1974;-44
2023/03/11 14:35:30;;;;;;;;;;;;;;;;;;5135366;27;1789;-43
2023/03/11 14:37:57;;;;;;;;;;;;;;;;;;5135152;27;2235;-46
2023/03/11 14:40:26;;;;;;;;;;;;;;;;;;5123430;27;3675;-44
2023/03/11 14:42:54;;;;;;;;;;;;;;;;;;5120449;27;1663;-43
2023/03/11 14:45:23;;;;;;;;;;;;;;;;;;5125638;27;1974;-43
2023/03/11 14:47:53;;;;;;;;;;;;;;;;;;5115401;27;1715;-43
2023/03/11 14:50:23;;;;;;;;;;;;;;;;;;5123046;27;2011;-43
2023/03/11 14:52:56;;;;;;;;;;;;;;;;;;5115440;27;2030;-43
2023/03/11 14:55:26;;;;;;;;;;;;;;;;;;5124208;27;1883;-47
2023/03/11 14:57:53;;;;;;;;;;;;;;;;;;5115291;27;1958;-42
2023/03/11 15:00:23;;;;;;;;;;;;;;;;;;5102476;28;1982;-44
2023/03/11 15:03:02;;;;;;;;;;;;;;;;;;5121008;27;1946;-43
2023/03/11 15:05:33;;;;;;;;;;;;;;;;;;5122952;27;1826;-45
2023/03/11 15:08:02;;;;;;;;;;;;;;;;;;5120707;27;2164;-43
2023/03/11 15:10:30;;;;;;;;;;;;;;;;;;5124991;27;1915;-47
2023/03/11 15:13:04;;;;;;;;;;;;;;;;;;5126875;27;2107;-43
2023/03/11 15:15:32;;;;;;;;;;;;;;;;;;5127076;27;2072;-45
2023/03/11 15:17:59;;;;;;;;;;;;;;;;;;5126076;27;2092;-43
2023/03/11 15:20:29;;;;;;;;;;;;;;;;;;5124275;27;2368;-43
2023/03/11 15:23:01;;;;;;;;;;;;;;;;;;5130319;27;1707;-51
2023/03/11 15:25:30;;;;;;;;;;;;;;;;;;5118818;27;1981;-45
2023/03/11 15:27:58;;;;;;;;;;;;;;;;;;5126761;27;1885;-43
2023/03/11 15:30:27;;;;;;;;;;;;;;;;;;5123894;27;2019;-48
2023/03/11 15:32:54;;;;;;;;;;;;;;;;;;5127225;27;1804;-49
2023/03/11 15:35:22;;;;;;;;;;;;;;;;;;5122419;27;1893;-43
2023/03/11 15:37:50;;;;;;;;;;;;;;;;;;5114119;27;1954;-44
2023/03/11 15:40:28;;;;;;;;;;;;;;;;;;5122814;27;1905;-46
2023/03/11 15:43:10;;;;;;;;;;;;;;;;;;5118411;27;2139;-51
2023/03/11 15:45:37;;;;;;;;;;;;;;;;;;5116973;27;1533;-49
2023/03/11 15:48:04;;;;;;;;;;;;;;;;;;5113623;28;1716;-47
2023/03/11 15:50:32;;;;;;;;;;;;;;;;;;5113612;28;2055;-50
2023/03/11 15:53:19;;;;;;;;;;;;;;;;;;5113766;28;1904;-46
2023/03/11 15:55:47;;;;;;;;;;;;;;;;;;5113551;28;1831;-48
2023/03/11 15:58:15;;;;;;;;;;;;;;;;;;5113547;28;1405;-47
2023/03/11 16:00:45;;;;;;;;;;;;;;;;;;5113100;28;2310;-43
2023/03/11 16:03:13;;;;;;;;;;;;;;;;;;5113355;28;1938;-44
2023/03/11 16:05:40;;;;;;;;;;;;;;;;;;5113366;28;1570;-42
2023/03/11 16:08:08;;;;;;;;;;;;;;;;;;5115749;27;1616;-44
2023/03/11 16:10:35;;;;;;;;;;;;;;;;;;5113289;28;1839;-45
2023/03/11 16:13:02;;;;;;;;;;;;;;;;;;5119896;27;1795;-45
2023/03/11 16:15:31;;;;;;;;;;;;;;;;;;5132401;27;1720;-46
2023/03/11 16:18:00;;;;;;;;;;;;;;;;;;5133610;27;2190;-43
2023/03/11 16:20:47;;;;;;;;;;;;;;;;;;5133412;27;1976;-45
2023/03/11 16:23:17;;;;;;;;;;;;;;;;;;5117019;27;1872;-43
2023/03/11 16:25:45;;;;;;;;;;;;;;;;;;5133742;27;2116;-45
2023/03/11 16:28:13;;;;;;;;;;;;;;;;;;5133601;27;2083;-45
2023/03/11 16:30:40;;;;;;;;;;;;;;;;;;5133321;27;1864;-45
2023/03/11 16:33:07;;;;;;;;;;;;;;;;;;5133428;27;2099;-43
2023/03/11 16:35:34;;;;;;;;;;;;;;;;;;5133676;27;1772;-42
2023/03/11 16:38:02;;;;;;;;;;;;;;;;;;5115073;27;1854;-44
2023/03/11 16:40:29;;;;;;;;;;;;;;;;;;5133185;27;2152;-44
2023/03/11 16:42:58;;;;;;;;;;;;;;;;;;5129323;27;1947;-43
2023/03/11 16:45:27;;;;;;;;;;;;;;;;;;5112460;28;1664;-44
2023/03/11 16:47:54;;;;;;;;;;;;;;;;;;5112687;28;1831;-43
2023/03/11 16:50:23;;;;;;;;;;;;;;;;;;5112562;28;1859;-43
2023/03/11 16:52:50;;;;;;;;;;;;;;;;;;5128256;27;1742;-44
2023/03/11 16:55:18;;;;;;;;;;;;;;;;;;5112430;27;2022;-45
2023/03/11 16:57:45;;;;;;;;;;;;;;;;;;5112253;28;1905;-47
2023/03/11 17:00:13;;;;;;;;;;;;;;;;;;5112099;28;2128;-47
2023/03/11 17:02:40;;;;;;;;;;;;;;;;;;5112353;28;1734;-42
2023/03/11 17:05:10;;;;;;;;;;;;;;;;;;5112016;28;1916;-43
2023/03/11 17:07:37;;;;;;;;;;;;;;;;;;5112167;28;1549;-43
2023/03/11 17:10:06;;;;;;;;;;;;;;;;;;5111817;28;1820;-44
2023/03/11 17:12:34;;;;;;;;;;;;;;;;;;5112206;28;2063;-44
2023/03/11 17:15:02;;;;;;;;;;;;;;;;;;5112199;28;1697;-43
2023/03/11 17:17:30;;;;;;;;;;;;;;;;;;5111983;28;2144;-45
2023/03/11 17:19:57;;;;;;;;;;;;;;;;;;5112040;28;2054;-44
2023/03/11 17:22:24;;;;;;;;;;;;;;;;;;5111272;28;1794;-44